createdAt,value
2019-05-21T00:00:03.938Z,18.10
2019-05-21T00:02:30.570Z,18.20
2019-05-21T00:04:56.945Z,18.30
2019-05-21T00:07:23.405Z,18.20
2019-05-21T00:09:50.219Z,18.00
2019-05-21T00:12:16.745Z,17.90
2019-05-21T00:14:43.191Z,18.00
2019-05-21T00:17:10.151Z,17.90
2019-05-21T00:19:36.681Z,17.80
2019-05-21T00:22:03.234Z,17.80
2019-05-21T00:24:29.630Z,17.70
2019-05-21T00:26:56.159Z,17.70
2019-05-21T00:29:59.767Z,17.90
2019-05-21T00:33:03.398Z,17.90
2019-05-21T00:36:07.158Z,18.00
2019-05-21T00:39:10.673Z,17.90
2019-05-21T00:42:12.921Z,17.80
2019-05-21T00:44:42.345Z,17.90
2019-05-21T00:47:10.915Z,18.00
2019-05-21T00:49:37.557Z,18.10
2019-05-21T00:52:08.580Z,18.20
2019-05-21T00:54:33.431Z,18.10
2019-05-21T00:57:00.580Z,18.10
2019-05-21T00:59:27.090Z,18.10
2019-05-21T01:01:53.590Z,17.90
2019-05-21T01:04:20.718Z,17.90
2019-05-21T01:06:47.229Z,18.00
2019-05-21T01:09:13.822Z,18.00
2019-05-21T01:11:40.380Z,18.10
2019-05-21T01:14:07.092Z,18.10
2019-05-21T01:16:34.102Z,18.10
2019-05-21T01:19:00.759Z,18.10
2019-05-21T01:21:27.184Z,18.00
2019-05-21T01:23:53.685Z,18.00
2019-05-21T01:26:20.324Z,17.90
2019-05-21T01:28:46.748Z,17.90
2019-05-21T01:31:13.242Z,17.80
2019-05-21T01:33:39.700Z,17.80
2019-05-21T01:36:06.207Z,17.70
2019-05-21T01:38:32.606Z,17.60
2019-05-21T01:40:59.068Z,17.50
2019-05-21T01:43:25.566Z,17.30
2019-05-21T01:45:52.174Z,17.30
2019-05-21T01:48:18.823Z,17.30
2019-05-21T01:50:45.247Z,17.30
2019-05-21T01:53:11.765Z,17.30
2019-05-21T01:55:38.198Z,17.20
2019-05-21T01:58:04.827Z,17.10
2019-05-21T02:00:31.485Z,17.10
2019-05-21T02:02:57.881Z,17.10
2019-05-21T02:05:32.781Z,17.20
2019-05-21T02:07:52.734Z,17.20
2019-05-21T02:10:19.228Z,17.10
2019-05-21T02:12:45.742Z,17.10
2019-05-21T02:15:12.403Z,17.00
2019-05-21T02:17:38.990Z,17.00
2019-05-21T02:20:06.338Z,16.90
2019-05-21T02:22:32.764Z,16.90
2019-05-21T02:24:59.172Z,17.00
2019-05-21T02:27:25.690Z,17.10
2019-05-21T02:29:52.250Z,17.10
2019-05-21T02:32:18.765Z,17.10
2019-05-21T02:34:45.273Z,17.10
2019-05-21T02:37:11.710Z,16.90
2019-05-21T02:39:38.202Z,16.80
2019-05-21T02:42:04.762Z,16.70
2019-05-21T02:44:31.176Z,16.60
2019-05-21T02:46:57.576Z,16.60
2019-05-21T02:49:24.435Z,16.60
2019-05-21T02:51:50.964Z,16.70
2019-05-21T02:54:17.472Z,16.80
2019-05-21T02:56:44.114Z,16.90
2019-05-21T02:59:11.033Z,16.80
2019-05-21T03:01:42.503Z,16.80
2019-05-21T03:04:09.149Z,16.70
2019-05-21T03:06:35.750Z,16.60
2019-05-21T03:09:04.200Z,16.60
2019-05-21T03:11:31.296Z,16.60
2019-05-21T03:13:57.817Z,16.60
2019-05-21T03:16:24.312Z,16.60
2019-05-21T03:18:50.868Z,16.60
2019-05-21T03:21:17.999Z,16.50
2019-05-21T03:23:44.452Z,16.40
2019-05-21T03:26:11.009Z,16.40
2019-05-21T03:28:37.509Z,16.30
2019-05-21T03:31:03.921Z,16.30
2019-05-21T03:33:30.569Z,16.20
2019-05-21T03:35:56.972Z,16.30
2019-05-21T03:38:23.581Z,16.20
2019-05-21T03:40:50.099Z,16.20
2019-05-21T03:43:16.606Z,16.10
2019-05-21T03:45:43.159Z,16.20
2019-05-21T03:48:09.987Z,16.10
2019-05-21T03:50:36.598Z,16.10
2019-05-21T03:53:03.141Z,16.00
2019-05-21T03:55:29.648Z,16.10
2019-05-21T03:57:56.064Z,16.00
2019-05-21T04:00:22.669Z,16.10
2019-05-21T04:02:49.151Z,16.20
2019-05-21T04:05:22.088Z,16.20
2019-05-21T04:07:48.723Z,16.30
2019-05-21T04:10:15.273Z,16.30
2019-05-21T04:12:41.935Z,16.50
2019-05-21T04:15:13.258Z,16.70
2019-05-21T04:17:44.563Z,16.80
2019-05-21T04:20:11.902Z,16.90
2019-05-21T04:22:40.217Z,16.90
2019-05-21T04:25:07.959Z,17.00
2019-05-21T04:27:34.359Z,17.00
2019-05-21T04:30:01.016Z,17.10
2019-05-21T04:32:27.467Z,17.20
2019-05-21T04:34:53.956Z,17.20
2019-05-21T04:37:20.447Z,17.40
2019-05-21T04:39:46.903Z,17.50
2019-05-21T04:42:16.414Z,17.80
2019-05-21T04:44:42.835Z,17.90
2019-05-21T04:47:09.290Z,17.90
2019-05-21T04:49:35.694Z,18.10
2019-05-21T04:52:02.307Z,18.20
2019-05-21T04:54:28.817Z,18.30
2019-05-21T04:56:55.228Z,18.30
2019-05-21T04:59:22.139Z,18.30
2019-05-21T05:01:48.696Z,18.30
2019-05-21T05:04:20.971Z,18.40
2019-05-21T05:06:43.522Z,18.40
2019-05-21T05:09:11.984Z,18.50
2019-05-21T05:11:38.548Z,18.40
2019-05-21T05:14:05.215Z,18.50
2019-05-21T05:16:31.778Z,18.60
2019-05-21T05:18:58.274Z,18.70
2019-05-21T05:21:24.795Z,18.80
2019-05-21T05:23:53.029Z,18.80
2019-05-21T05:26:20.168Z,18.90
2019-05-21T05:28:46.777Z,18.90
2019-05-21T05:31:15.241Z,18.90
2019-05-21T05:33:41.657Z,18.90
2019-05-21T05:36:08.305Z,18.70
2019-05-21T05:38:37.818Z,18.70
2019-05-21T05:41:04.429Z,18.70
2019-05-21T05:43:31.804Z,18.70
2019-05-21T05:45:59.603Z,18.70
2019-05-21T05:48:27.698Z,18.70
2019-05-21T05:51:02.188Z,18.60
2019-05-21T05:53:28.796Z,18.60
2019-05-21T05:55:55.369Z,18.60
2019-05-21T05:58:21.920Z,18.60
2019-05-21T06:00:48.522Z,18.40
2019-05-21T06:03:15.667Z,18.50
2019-05-21T06:05:42.284Z,18.40
2019-05-21T06:08:08.784Z,18.50
2019-05-21T06:10:39.826Z,18.50
2019-05-21T06:13:04.068Z,18.50
2019-05-21T06:15:30.467Z,18.50
2019-05-21T06:17:57.039Z,18.60
2019-05-21T06:20:23.662Z,18.70
2019-05-21T06:22:50.187Z,18.70
2019-05-21T06:25:18.517Z,18.80
2019-05-21T06:27:45.225Z,18.70
2019-05-21T06:30:12.895Z,18.70
2019-05-21T06:32:39.324Z,18.80
2019-05-21T06:35:06.238Z,18.70
2019-05-21T06:37:32.743Z,18.70
2019-05-21T06:39:59.301Z,18.80
2019-05-21T06:42:25.807Z,18.70
2019-05-21T06:44:52.308Z,18.70
2019-05-21T06:47:18.775Z,18.70
2019-05-21T06:49:45.396Z,18.60
2019-05-21T06:52:12.484Z,18.60
2019-05-21T06:54:39.050Z,18.60
2019-05-21T06:57:05.612Z,18.70
2019-05-21T06:59:32.260Z,18.80
2019-05-21T07:01:58.781Z,18.80
2019-05-21T07:04:25.201Z,18.80
2019-05-21T07:06:51.843Z,18.70
2019-05-21T07:09:18.747Z,18.70
2019-05-21T07:11:45.401Z,18.80
2019-05-21T07:14:11.927Z,18.90
2019-05-21T07:16:38.336Z,18.80
2019-05-21T07:19:04.939Z,18.80
2019-05-21T07:21:31.515Z,18.90
2019-05-21T07:23:58.488Z,18.80
2019-05-21T07:26:25.093Z,18.80
2019-05-21T07:28:52.969Z,18.80
2019-05-21T07:31:20.105Z,18.80
2019-05-21T07:33:46.514Z,18.80
2019-05-21T07:36:13.713Z,18.60
2019-05-21T07:38:52.770Z,18.40
2019-05-21T07:41:08.501Z,18.40
2019-05-21T07:43:35.016Z,18.30
2019-05-21T07:46:02.049Z,18.30
2019-05-21T07:48:28.772Z,18.50
2019-05-21T07:50:55.414Z,18.50
2019-05-21T07:53:22.026Z,18.60
2019-05-21T07:55:48.437Z,18.50
2019-05-21T07:58:15.007Z,18.60
2019-05-21T08:00:42.242Z,18.60
2019-05-21T08:03:08.859Z,18.50
2019-05-21T08:05:35.353Z,18.60
2019-05-21T08:08:01.845Z,18.70
2019-05-21T08:10:28.504Z,18.60
2019-05-21T08:12:54.913Z,18.60
2019-05-21T08:15:22.758Z,18.60
2019-05-21T08:17:49.314Z,18.40
2019-05-21T08:20:17.033Z,18.20
2019-05-21T08:22:43.443Z,18.30
2019-05-21T08:25:14.170Z,18.40
2019-05-21T08:27:38.290Z,18.40
2019-05-21T08:30:05.312Z,18.30
2019-05-21T08:32:31.843Z,18.20
2019-05-21T08:34:58.286Z,18.10
2019-05-21T08:37:24.777Z,18.10
2019-05-21T08:39:51.396Z,18.10
2019-05-21T08:42:17.919Z,18.40
2019-05-21T08:44:44.449Z,18.80
2019-05-21T08:47:11.127Z,18.70
2019-05-21T08:49:37.686Z,18.80
2019-05-21T08:52:04.303Z,18.80
2019-05-21T08:54:49.885Z,18.80
2019-05-21T08:57:16.498Z,19.00
2019-05-21T08:59:43.135Z,19.00
2019-05-21T09:02:09.880Z,19.00
2019-05-21T09:04:46.016Z,18.80
2019-05-21T09:07:04.785Z,19.00
2019-05-21T09:09:48.289Z,18.90
2019-05-21T09:11:59.790Z,19.10
2019-05-21T09:14:26.433Z,19.30
2019-05-21T09:16:53.176Z,19.30
2019-05-21T09:19:20.229Z,19.30
2019-05-21T09:21:46.734Z,19.30
2019-05-21T09:24:13.300Z,19.40
2019-05-21T09:26:39.800Z,19.60
2019-05-21T09:29:06.650Z,19.80
2019-05-21T09:31:33.106Z,20.00
2019-05-21T09:33:59.606Z,20.20
2019-05-21T09:36:26.106Z,19.80
2019-05-21T09:38:52.789Z,20.00
2019-05-21T09:41:19.381Z,20.00
2019-05-21T09:43:45.895Z,20.10
2019-05-21T09:46:12.558Z,20.10
2019-05-21T09:48:39.063Z,20.10
2019-05-21T09:51:05.565Z,20.30
2019-05-21T09:53:32.123Z,20.60
2019-05-21T09:56:00.529Z,20.40
2019-05-21T09:58:28.979Z,20.60
2019-05-21T10:01:09.714Z,20.60
2019-05-21T10:03:54.512Z,20.60
2019-05-21T10:06:21.281Z,20.70
2019-05-21T10:08:47.783Z,21.00
2019-05-21T10:11:14.198Z,21.30
2019-05-21T10:13:40.831Z,21.50
2019-05-21T10:16:07.217Z,21.60
2019-05-21T10:18:33.882Z,22.20
2019-05-21T10:21:00.499Z,22.30
2019-05-21T10:23:27.115Z,22.50
2019-05-21T10:25:53.663Z,22.70
2019-05-21T10:28:20.267Z,23.00
2019-05-21T10:30:46.777Z,23.30
2019-05-21T10:33:13.348Z,23.30
2019-05-21T10:35:39.752Z,23.30
2019-05-21T10:38:06.763Z,23.40
2019-05-21T10:40:33.282Z,22.90
2019-05-21T10:42:59.700Z,22.70
2019-05-21T10:45:26.454Z,22.40
2019-05-21T10:47:53.068Z,22.50
2019-05-21T10:50:19.713Z,23.10
2019-05-21T10:52:46.198Z,23.10
2019-05-21T10:55:16.152Z,23.00
2019-05-21T10:57:43.732Z,23.50
2019-05-21T11:00:16.039Z,24.10
2019-05-21T11:02:47.131Z,24.70
2019-05-21T11:05:18.713Z,25.00
2019-05-21T11:07:45.347Z,25.10
2019-05-21T11:10:12.641Z,25.50
2019-05-21T11:12:39.684Z,25.80
2019-05-21T11:15:06.786Z,26.20
2019-05-21T11:17:48.366Z,26.60
2019-05-21T11:20:04.248Z,26.50
2019-05-21T11:22:30.864Z,26.60
2019-05-21T11:24:57.436Z,26.50
2019-05-21T11:27:24.149Z,25.90
2019-05-21T11:29:50.752Z,25.60
2019-05-21T11:32:17.391Z,24.60
2019-05-21T11:34:44.015Z,24.60
2019-05-21T11:37:11.042Z,26.30
2019-05-21T11:39:37.735Z,28.00
2019-05-21T11:42:04.853Z,28.30
2019-05-21T11:44:31.631Z,28.10
2019-05-21T11:46:58.194Z,27.90
2019-05-21T11:49:24.949Z,27.40
2019-05-21T11:51:51.632Z,27.10
2019-05-21T11:54:18.640Z,27.40
2019-05-21T11:56:45.038Z,26.40
2019-05-21T11:59:11.637Z,26.70
2019-05-21T12:01:38.270Z,27.00
2019-05-21T12:04:04.882Z,27.40
2019-05-21T12:06:31.496Z,26.80
2019-05-21T12:08:58.110Z,26.70
2019-05-21T12:11:24.722Z,26.30
2019-05-21T12:13:51.272Z,26.90
2019-05-21T12:16:17.959Z,27.70
2019-05-21T12:18:44.330Z,27.50
2019-05-21T12:21:11.010Z,27.60
2019-05-21T12:23:37.427Z,28.10
2019-05-21T12:26:04.038Z,28.10
2019-05-21T12:28:30.714Z,28.90
2019-05-21T12:30:57.343Z,29.40
2019-05-21T12:33:23.950Z,29.80
2019-05-21T12:35:50.626Z,30.20
2019-05-21T12:38:17.253Z,30.60
2019-05-21T12:40:43.921Z,30.90
2019-05-21T12:43:10.524Z,31.10
2019-05-21T12:45:37.066Z,31.20
2019-05-21T12:48:03.800Z,30.80
2019-05-21T12:50:31.004Z,30.20
2019-05-21T12:52:57.755Z,29.30
2019-05-21T12:55:24.271Z,29.20
2019-05-21T12:57:51.049Z,29.40
2019-05-21T13:00:18.534Z,29.70
2019-05-21T13:02:45.222Z,30.10
2019-05-21T13:05:12.299Z,30.50
2019-05-21T13:07:38.830Z,30.70
2019-05-21T13:10:06.726Z,30.50
2019-05-21T13:12:33.364Z,30.30
2019-05-21T13:14:59.900Z,30.20
2019-05-21T13:17:26.324Z,30.00
2019-05-21T13:19:53.006Z,30.30
2019-05-21T13:22:20.176Z,30.40
2019-05-21T13:24:46.571Z,30.40
2019-05-21T13:27:13.234Z,27.70
2019-05-21T13:29:39.659Z,26.10
2019-05-21T13:32:06.155Z,26.00
2019-05-21T13:34:32.893Z,26.30
2019-05-21T13:36:59.419Z,27.30
2019-05-21T13:39:26.005Z,27.90
2019-05-21T13:41:52.901Z,28.40
2019-05-21T13:44:19.569Z,28.50
2019-05-21T13:46:49.417Z,29.20
2019-05-21T13:49:16.210Z,29.50
2019-05-21T13:51:42.933Z,30.00
2019-05-21T13:54:09.577Z,30.30
2019-05-21T13:56:36.316Z,30.30
2019-05-21T13:59:02.981Z,29.80
2019-05-21T14:01:40.990Z,29.10
2019-05-21T14:03:59.938Z,28.50
2019-05-21T14:06:26.447Z,27.90
2019-05-21T14:08:53.041Z,27.70
2019-05-21T14:11:19.733Z,27.30
2019-05-21T14:13:46.367Z,26.90
2019-05-21T14:16:13.025Z,26.30
2019-05-21T14:18:39.550Z,25.60
2019-05-21T14:21:06.119Z,25.10
2019-05-21T14:23:32.701Z,24.90
2019-05-21T14:25:59.153Z,25.10
2019-05-21T14:28:25.736Z,25.10
2019-05-21T14:30:52.389Z,24.60
2019-05-21T14:33:18.887Z,24.60
2019-05-21T14:35:45.691Z,24.30
2019-05-21T14:38:12.187Z,24.20
2019-05-21T14:40:39.194Z,24.40
2019-05-21T14:43:05.841Z,24.70
2019-05-21T14:45:34.306Z,24.80
2019-05-21T14:48:00.878Z,24.80
2019-05-21T14:50:27.436Z,24.90
2019-05-21T14:52:54.536Z,24.80
2019-05-21T14:55:20.938Z,24.80
2019-05-21T14:57:47.595Z,24.70
2019-05-21T15:00:31.178Z,24.20
2019-05-21T15:02:57.886Z,24.40
2019-05-21T15:05:24.632Z,24.60
2019-05-21T15:07:51.472Z,25.00
2019-05-21T15:10:18.180Z,25.20
2019-05-21T15:12:44.785Z,25.50
2019-05-21T15:15:12.203Z,26.00
2019-05-21T15:17:38.750Z,26.30
2019-05-21T15:20:24.788Z,25.90
2019-05-21T15:22:52.750Z,25.40
2019-05-21T15:25:19.544Z,25.10
2019-05-21T15:27:46.172Z,25.20
2019-05-21T15:30:14.734Z,25.10
2019-05-21T15:32:41.272Z,23.50
2019-05-21T15:35:07.948Z,23.40
2019-05-21T15:37:34.392Z,23.10
2019-05-21T15:40:00.892Z,22.30
2019-05-21T15:42:27.507Z,21.90
2019-05-21T15:44:54.042Z,21.00
2019-05-21T15:47:20.602Z,20.40
2019-05-21T15:49:47.334Z,20.40
2019-05-21T15:52:14.012Z,20.50
2019-05-21T15:54:40.527Z,20.20
2019-05-21T15:57:07.037Z,20.10
2019-05-21T15:59:35.499Z,20.20
2019-05-21T16:02:02.146Z,20.20
2019-05-21T16:04:28.654Z,20.30
2019-05-21T16:06:55.595Z,20.40
2019-05-21T16:09:22.018Z,20.30
2019-05-21T16:11:48.626Z,20.30
2019-05-21T16:14:15.085Z,20.40
2019-05-21T16:16:41.795Z,20.60
2019-05-21T16:19:08.410Z,20.60
2019-05-21T16:21:35.070Z,20.60
2019-05-21T16:24:01.473Z,20.70
2019-05-21T16:26:28.987Z,20.70
2019-05-21T16:28:55.645Z,20.70
2019-05-21T16:31:22.786Z,20.70
2019-05-21T16:33:49.759Z,20.70
2019-05-21T16:36:16.279Z,20.80
2019-05-21T16:38:42.787Z,20.90
2019-05-21T16:41:09.216Z,20.90
2019-05-21T16:43:35.750Z,20.80
2019-05-21T16:46:02.806Z,20.90
2019-05-21T16:48:29.512Z,20.80
2019-05-21T16:50:56.017Z,20.70
2019-05-21T16:53:22.572Z,20.70
2019-05-21T16:55:49.170Z,20.60
2019-05-21T16:58:15.754Z,20.50
2019-05-21T17:00:42.407Z,20.60
2019-05-21T17:03:09.039Z,20.60
2019-05-21T17:05:35.545Z,20.60
2019-05-21T17:08:02.090Z,20.70
2019-05-21T17:10:28.793Z,20.60
2019-05-21T17:12:55.419Z,20.60
2019-05-21T17:15:21.979Z,20.50
2019-05-21T17:17:48.522Z,20.60
2019-05-21T17:20:15.343Z,20.70
2019-05-21T17:22:42.009Z,20.50
2019-05-21T17:25:09.442Z,20.50
2019-05-21T17:27:36.762Z,20.40
2019-05-21T17:30:07.279Z,20.40
2019-05-21T17:32:34.015Z,20.10
2019-05-21T17:35:00.653Z,19.80
2019-05-21T17:37:27.289Z,19.60
2019-05-21T17:39:53.711Z,19.40
2019-05-21T17:42:20.375Z,19.30
2019-05-21T17:44:47.777Z,19.20
2019-05-21T17:47:14.346Z,19.00
2019-05-21T17:49:41.062Z,18.80
2019-05-21T17:52:07.574Z,18.80
2019-05-21T17:54:36.199Z,18.80
2019-05-21T17:57:03.051Z,18.70
2019-05-21T17:59:29.825Z,18.70
2019-05-21T18:01:56.851Z,18.70
2019-05-21T18:04:24.193Z,18.60
2019-05-21T18:06:51.003Z,18.50
2019-05-21T18:09:18.415Z,18.60
2019-05-21T18:11:45.167Z,18.60
2019-05-21T18:14:12.422Z,18.70
2019-05-21T18:16:38.928Z,18.80
2019-05-21T18:19:08.508Z,18.90
2019-05-21T18:21:35.410Z,19.00
2019-05-21T18:24:02.196Z,19.00
2019-05-21T18:26:28.689Z,19.00
2019-05-21T18:28:55.296Z,18.90
2019-05-21T18:31:22.358Z,18.90
2019-05-21T18:33:49.374Z,18.90
2019-05-21T18:36:15.984Z,18.90
2019-05-21T18:38:42.645Z,18.90
2019-05-21T18:41:09.253Z,18.90
2019-05-21T18:43:36.075Z,18.90
2019-05-21T18:46:02.836Z,18.90
2019-05-21T18:48:29.341Z,18.90
2019-05-21T18:50:56.282Z,18.80
2019-05-21T18:53:22.927Z,18.80
2019-05-21T18:55:49.438Z,18.70
2019-05-21T18:58:17.496Z,18.70
2019-05-21T19:00:44.209Z,18.60
2019-05-21T19:03:10.860Z,18.60
2019-05-21T19:05:37.269Z,18.50
2019-05-21T19:08:04.347Z,18.40
2019-05-21T19:10:30.938Z,18.30
2019-05-21T19:13:00.597Z,18.20
2019-05-21T19:15:26.022Z,18.10
2019-05-21T19:17:52.595Z,18.10
2019-05-21T19:20:19.701Z,18.10
2019-05-21T19:22:46.361Z,18.00
2019-05-21T19:25:13.034Z,18.00
2019-05-21T19:27:39.778Z,18.00
2019-05-21T19:30:07.922Z,17.90
2019-05-21T19:32:34.539Z,18.00
2019-05-21T19:35:01.168Z,18.00
2019-05-21T19:37:27.747Z,18.00
2019-05-21T19:39:54.261Z,18.00
2019-05-21T19:42:20.794Z,17.90
2019-05-21T19:44:47.226Z,17.90
2019-05-21T19:47:13.847Z,18.00
2019-05-21T19:49:40.398Z,18.00
2019-05-21T19:52:07.021Z,17.90
2019-05-21T19:54:34.155Z,17.90
2019-05-21T19:57:01.332Z,17.90
2019-05-21T19:59:27.742Z,18.00
2019-05-21T20:01:55.624Z,17.90
2019-05-21T20:04:22.961Z,17.90
2019-05-21T20:06:49.755Z,17.90
2019-05-21T20:09:17.322Z,17.90
2019-05-21T20:11:43.929Z,17.90
2019-05-21T20:14:10.541Z,18.00
2019-05-21T20:16:37.900Z,17.90
2019-05-21T20:19:05.919Z,18.00
2019-05-21T20:21:34.863Z,18.00
2019-05-21T20:24:02.425Z,17.90
2019-05-21T20:26:30.828Z,18.00
2019-05-21T20:28:57.431Z,18.00
2019-05-21T20:31:24.905Z,17.90
2019-05-21T20:33:52.733Z,17.90
2019-05-21T20:36:19.334Z,17.90
2019-05-21T20:38:45.989Z,17.90
2019-05-21T20:41:13.294Z,17.90
2019-05-21T20:43:40.087Z,17.90
2019-05-21T20:46:07.687Z,17.90
2019-05-21T20:48:35.305Z,17.90
2019-05-21T20:51:02.123Z,17.90
2019-05-21T20:53:29.285Z,17.90
2019-05-21T20:55:56.628Z,17.90
2019-05-21T20:58:23.239Z,18.00
2019-05-21T21:00:54.316Z,18.00
2019-05-21T21:03:22.396Z,18.00
2019-05-21T21:05:49.888Z,18.00
2019-05-21T21:08:17.138Z,17.90
2019-05-21T21:10:43.870Z,18.00
2019-05-21T21:13:11.177Z,18.00
2019-05-21T21:15:39.097Z,18.00
2019-05-21T21:18:06.318Z,18.00
2019-05-21T21:20:33.015Z,17.90
2019-05-21T21:22:59.471Z,17.90
2019-05-21T21:25:27.200Z,17.90
2019-05-21T21:27:54.605Z,17.90
2019-05-21T21:30:21.163Z,17.80
2019-05-21T21:32:48.383Z,17.90
2019-05-21T21:35:15.977Z,17.90
2019-05-21T21:37:43.048Z,17.90
2019-05-21T21:40:12.298Z,17.80
2019-05-21T21:42:40.417Z,17.70
2019-05-21T21:45:08.026Z,17.70
2019-05-21T21:47:34.640Z,17.60
2019-05-21T21:50:01.574Z,17.60
2019-05-21T21:52:30.156Z,17.70
2019-05-21T21:54:56.784Z,17.60
2019-05-21T21:57:23.298Z,17.60
2019-05-21T21:59:50.638Z,17.60
2019-05-21T22:02:28.185Z,17.50
2019-05-21T22:04:57.184Z,17.50
2019-05-21T22:07:24.100Z,17.40
2019-05-21T22:09:51.123Z,17.30
2019-05-21T22:12:19.277Z,17.30
2019-05-21T22:14:52.226Z,17.30
2019-05-21T22:17:18.915Z,17.30
2019-05-21T22:19:45.982Z,17.30
2019-05-21T22:22:13.301Z,17.30
2019-05-21T22:24:39.802Z,17.20
2019-05-21T22:27:07.091Z,17.20
2019-05-21T22:29:34.125Z,17.20
2019-05-21T22:32:00.859Z,17.20
2019-05-21T22:34:28.101Z,17.20
2019-05-21T22:36:55.119Z,17.20
2019-05-21T22:39:23.621Z,17.10
2019-05-21T22:41:51.500Z,17.10
2019-05-21T22:44:18.151Z,17.10
2019-05-21T22:46:45.965Z,17.00
2019-05-21T22:49:12.478Z,16.90
2019-05-21T22:51:39.141Z,16.90
2019-05-21T22:54:05.763Z,17.00
2019-05-21T22:56:32.282Z,17.00
2019-05-21T22:58:58.958Z,16.90
2019-05-21T23:01:27.765Z,17.00
2019-05-21T23:03:55.967Z,16.90
2019-05-21T23:06:22.977Z,16.90
2019-05-21T23:08:49.699Z,16.90
2019-05-21T23:11:16.286Z,16.80
2019-05-21T23:13:43.151Z,16.90
2019-05-21T23:16:10.352Z,16.80
2019-05-21T23:18:37.681Z,16.80
2019-05-21T23:21:04.651Z,16.80
2019-05-21T23:23:33.143Z,16.80
2019-05-21T23:26:01.052Z,16.70
2019-05-21T23:28:28.338Z,16.70
2019-05-21T23:30:55.010Z,16.60
2019-05-21T23:33:22.055Z,16.70
2019-05-21T23:35:50.258Z,16.70
2019-05-21T23:38:18.455Z,16.70
2019-05-21T23:40:48.163Z,16.60
2019-05-21T23:43:15.415Z,16.60
2019-05-21T23:45:42.014Z,16.60
2019-05-21T23:48:10.430Z,16.50
2019-05-21T23:50:37.687Z,16.50
2019-05-21T23:53:06.088Z,16.60
2019-05-21T23:55:32.744Z,16.60
2019-05-21T23:57:59.186Z,16.50
